Time;durP1;ratioP1;P1;durP2;ratioP2;P2;SDS_P1;SDS_P2;PMS_P1;PMS_P2;Temp;Humidity;BMP_temperature;BMP_pressure;BME280_temperature;BME280_humidity;BME280_pressure;Samples;Min_cycle;Max_cycle;Signal;HPM_P1;HPM_P2
2022/03/27 00:02:21;;;;;;;21.40;12.93;;;;;;;;;;5067318;28;20314;-76
2022/03/27 00:04:48;;;;;;;18.97;12.83;;;;;;;;;;5069841;28;20330;-76
2022/03/27 00:07:14;;;;;;;18.30;13.33;;;;;;;;;;5066070;28;20197;-76
2022/03/27 00:09:40;;;;;;;18.40;12.90;;;;;;;;;;5062768;28;20524;-77
2022/03/27 00:12:07;;;;;;;21.40;13.37;;;;;;;;;;5063922;28;20193;-76
2022/03/27 00:14:33;;;;;;;21.83;13.73;;;;;;;;;;5064458;28;20916;-76
2022/03/27 00:16:59;;;;;;;21.53;14.33;;;;;;;;;;5072580;28;20200;-75
2022/03/27 00:19:25;;;;;;;26.33;13.87;;;;;;;;;;5067348;28;20186;-76
2022/03/27 00:21:52;;;;;;;23.93;13.60;;;;;;;;;;5069361;28;20213;-76
2022/03/27 00:24:18;;;;;;;20.13;13.00;;;;;;;;;;5063247;28;20607;-76
2022/03/27 00:26:44;;;;;;;20.57;13.20;;;;;;;;;;5072679;28;20184;-79
2022/03/27 00:29:10;;;;;;;18.50;12.20;;;;;;;;;;5069944;28;20192;-75
2022/03/27 00:31:39;;;;;;;21.00;12.37;;;;;;;;;;5068679;28;20177;-75
2022/03/27 00:34:05;;;;;;;20.90;12.30;;;;;;;;;;5065112;28;20212;-75
2022/03/27 00:36:32;;;;;;;19.03;11.30;;;;;;;;;;5067861;28;20679;-74
2022/03/27 00:38:58;;;;;;;18.70;11.97;;;;;;;;;;5069644;28;20178;-74
2022/03/27 00:41:25;;;;;;;19.00;12.07;;;;;;;;;;5066701;28;20181;-73
2022/03/27 00:43:52;;;;;;;23.03;12.83;;;;;;;;;;5066775;28;20244;-73
2022/03/27 00:46:18;;;;;;;20.60;13.07;;;;;;;;;;5060020;28;20236;-74
2022/03/27 00:48:44;;;;;;;22.97;12.70;;;;;;;;;;5067867;28;20208;-73
2022/03/27 00:51:10;;;;;;;18.70;12.40;;;;;;;;;;5060990;28;20186;-73
2022/03/27 00:53:37;;;;;;;18.77;11.93;;;;;;;;;;5064479;28;20205;-73
2022/03/27 00:56:03;;;;;;;16.47;11.77;;;;;;;;;;5064977;28;20784;-73
2022/03/27 00:58:29;;;;;;;17.80;12.00;;;;;;;;;;5066812;28;20224;-73
2022/03/27 01:00:56;;;;;;;19.90;12.40;;;;;;;;;;5065314;28;20190;-73
2022/03/27 01:03:25;;;;;;;19.63;12.47;;;;;;;;;;5066093;28;20625;-73
2022/03/27 01:05:52;;;;;;;19.43;11.13;;;;;;;;;;5065502;28;20170;-73
2022/03/27 01:09:35;;;;;;;19.40;12.07;;;;;;;;;;5061758;28;20188;-73
2022/03/27 01:11:12;;;;;;;18.00;11.80;;;;;;;;;;5064491;28;20557;-73
2022/03/27 01:13:40;;;;;;;16.20;11.07;;;;;;;;;;5068971;28;20217;-73
2022/03/27 01:16:11;;;;;;;14.67;9.57;;;;;;;;;;5066951;28;20229;-73
2022/03/27 01:18:38;;;;;;;13.27;9.00;;;;;;;;;;5067500;28;20249;-73
2022/03/27 01:21:04;;;;;;;11.43;8.13;;;;;;;;;;5063792;28;20177;-73
2022/03/27 01:23:30;;;;;;;12.53;8.80;;;;;;;;;;5063860;28;20294;-73
2022/03/27 01:25:57;;;;;;;14.17;9.87;;;;;;;;;;5062892;28;20255;-73
2022/03/27 01:28:23;;;;;;;16.00;9.93;;;;;;;;;;5068020;28;20196;-73
2022/03/27 01:30:50;;;;;;;16.63;10.27;;;;;;;;;;5069544;28;20192;-73
2022/03/27 01:33:16;;;;;;;17.40;10.20;;;;;;;;;;5068985;28;20205;-73
2022/03/27 01:35:42;;;;;;;15.47;10.60;;;;;;;;;;5067881;28;20201;-73
2022/03/27 01:38:09;;;;;;;15.43;9.23;;;;;;;;;;5060555;28;20286;-73
2022/03/27 01:40:35;;;;;;;16.97;10.20;;;;;;;;;;5068017;28;20181;-73
2022/03/27 01:43:01;;;;;;;13.97;9.57;;;;;;;;;;5064573;28;20205;-73
2022/03/27 01:45:31;;;;;;;11.13;8.93;;;;;;;;;;5066371;28;20227;-73
2022/03/27 01:47:58;;;;;;;26.90;9.50;;;;;;;;;;5067832;28;20235;-73
2022/03/27 01:50:24;;;;;;;12.70;8.70;;;;;;;;;;5070405;28;20181;-73
2022/03/27 01:52:50;;;;;;;11.93;9.00;;;;;;;;;;5070893;28;20204;-73
2022/03/27 01:55:16;;;;;;;12.47;8.90;;;;;;;;;;5066101;28;20212;-73
2022/03/27 01:57:43;;;;;;;12.37;9.43;;;;;;;;;;5066575;28;20543;-73
2022/03/27 02:00:10;;;;;;;13.83;9.63;;;;;;;;;;5069631;28;20323;-73
2022/03/27 02:02:40;;;;;;;13.30;9.47;;;;;;;;;;5059209;28;20570;-73
2022/03/27 02:05:06;;;;;;;13.47;9.07;;;;;;;;;;5068091;28;20573;-73
2022/03/27 02:07:42;;;;;;;14.73;10.37;;;;;;;;;;5066863;28;20255;-73
2022/03/27 02:10:08;;;;;;;12.57;8.77;;;;;;;;;;5060812;28;20652;-73
2022/03/27 02:12:35;;;;;;;12.50;9.47;;;;;;;;;;5065054;28;20323;-73
2022/03/27 02:15:02;;;;;;;13.77;9.57;;;;;;;;;;5064925;28;20212;-73
2022/03/27 02:17:28;;;;;;;11.93;9.37;;;;;;;;;;5070319;28;20197;-73
2022/03/27 02:19:54;;;;;;;13.43;9.60;;;;;;;;;;5065681;28;20186;-73
2022/03/27 02:22:20;;;;;;;14.77;9.67;;;;;;;;;;5065974;28;20201;-73
2022/03/27 02:24:46;;;;;;;14.33;9.80;;;;;;;;;;5064715;28;20956;-73
2022/03/27 02:27:13;;;;;;;12.97;9.50;;;;;;;;;;5059557;28;20210;-73
2022/03/27 02:29:39;;;;;;;12.67;9.47;;;;;;;;;;5068612;28;20184;-73
2022/03/27 02:32:05;;;;;;;12.43;9.77;;;;;;;;;;5069335;28;20801;-73
2022/03/27 02:34:31;;;;;;;17.70;10.53;;;;;;;;;;5066836;28;20305;-73
2022/03/27 02:36:58;;;;;;;14.03;10.13;;;;;;;;;;5066079;28;20185;-73
2022/03/27 02:39:24;;;;;;;17.53;10.20;;;;;;;;;;5061090;28;20185;-73
2022/03/27 02:41:50;;;;;;;13.70;10.70;;;;;;;;;;5066181;28;20193;-73
2022/03/27 02:44:16;;;;;;;14.13;9.17;;;;;;;;;;5064142;28;20220;-73
2022/03/27 02:46:43;;;;;;;12.10;8.73;;;;;;;;;;5059384;28;20192;-73
2022/03/27 02:49:09;;;;;;;13.70;10.10;;;;;;;;;;5059981;28;20350;-73
2022/03/27 02:51:35;;;;;;;13.40;10.13;;;;;;;;;;5061651;28;20187;-73
2022/03/27 02:54:04;;;;;;;16.23;11.53;;;;;;;;;;5064447;28;20266;-73
2022/03/27 02:56:30;;;;;;;15.53;9.90;;;;;;;;;;5066400;28;20299;-74
2022/03/27 02:58:56;;;;;;;14.43;9.63;;;;;;;;;;5065722;28;20184;-73
2022/03/27 03:01:22;;;;;;;12.60;9.30;;;;;;;;;;5065781;28;20189;-74
2022/03/27 03:03:48;;;;;;;13.83;9.90;;;;;;;;;;5063649;28;20278;-73
2022/03/27 03:06:14;;;;;;;13.90;9.80;;;;;;;;;;5060460;28;20202;-73
2022/03/27 03:08:41;;;;;;;11.90;9.13;;;;;;;;;;5067095;28;20177;-73
2022/03/27 03:11:08;;;;;;;15.63;10.83;;;;;;;;;;5065978;28;20173;-73
2022/03/27 03:13:34;;;;;;;15.13;9.90;;;;;;;;;;5059360;28;20278;-73
2022/03/27 03:16:00;;;;;;;14.43;10.13;;;;;;;;;;5064867;28;20208;-73
2022/03/27 03:18:27;;;;;;;14.43;9.77;;;;;;;;;;5070031;28;20201;-73
2022/03/27 03:20:54;;;;;;;13.67;9.87;;;;;;;;;;5067610;28;20184;-73
2022/03/27 03:23:20;;;;;;;13.37;9.77;;;;;;;;;;5072418;28;21173;-73
2022/03/27 03:25:46;;;;;;;12.83;9.90;;;;;;;;;;5063721;28;20281;-73
2022/03/27 03:28:12;;;;;;;12.30;9.80;;;;;;;;;;5062797;28;20251;-73
2022/03/27 03:30:38;;;;;;;12.60;9.43;;;;;;;;;;5068995;28;20235;-73
2022/03/27 03:33:04;;;;;;;14.07;10.03;;;;;;;;;;5067950;28;20691;-73
2022/03/27 03:35:31;;;;;;;17.10;10.40;;;;;;;;;;5066824;28;20208;-73
2022/03/27 03:37:58;;;;;;;13.73;9.70;;;;;;;;;;5064777;28;20186;-73
2022/03/27 03:40:24;;;;;;;13.77;10.03;;;;;;;;;;5055994;28;20182;-73
2022/03/27 03:42:50;;;;;;;16.07;10.40;;;;;;;;;;5063649;28;20197;-73
2022/03/27 03:45:18;;;;;;;15.37;9.80;;;;;;;;;;5070157;28;20246;-73
2022/03/27 03:47:44;;;;;;;14.80;9.53;;;;;;;;;;5066051;28;20193;-73
2022/03/27 03:50:10;;;;;;;15.07;9.47;;;;;;;;;;5072390;28;20260;-73
2022/03/27 03:52:36;;;;;;;12.97;9.73;;;;;;;;;;5064523;28;20248;-73
2022/03/27 03:55:03;;;;;;;12.60;8.87;;;;;;;;;;5063955;28;20202;-73
2022/03/27 03:57:29;;;;;;;16.80;9.47;;;;;;;;;;5062973;28;20204;-73
2022/03/27 03:59:55;;;;;;;13.47;9.50;;;;;;;;;;5065426;28;20223;-73
2022/03/27 04:02:21;;;;;;;11.13;9.10;;;;;;;;;;5061959;28;20201;-73
2022/03/27 04:04:47;;;;;;;12.73;9.43;;;;;;;;;;5069870;28;20243;-73
2022/03/27 04:07:14;;;;;;;13.07;9.13;;;;;;;;;;5066856;28;20197;-73
2022/03/27 04:09:40;;;;;;;12.20;8.77;;;;;;;;;;5069254;28;20209;-73
2022/03/27 04:12:06;;;;;;;11.87;9.00;;;;;;;;;;5069387;28;20243;-73
2022/03/27 04:14:36;;;;;;;12.43;9.37;;;;;;;;;;5065256;28;20178;-73
2022/03/27 04:17:03;;;;;;;14.50;9.17;;;;;;;;;;5064888;28;20235;-73
2022/03/27 04:19:30;;;;;;;11.93;9.10;;;;;;;;;;5066664;28;20180;-73
2022/03/27 04:21:56;;;;;;;12.37;9.07;;;;;;;;;;5070420;28;20177;-73
2022/03/27 04:24:22;;;;;;;16.50;9.60;;;;;;;;;;5068578;28;20201;-73
2022/03/27 04:26:49;;;;;;;13.50;9.07;;;;;;;;;;5066914;28;20186;-73
2022/03/27 04:29:15;;;;;;;16.70;10.87;;;;;;;;;;5064914;28;20204;-73
2022/03/27 04:31:41;;;;;;;16.50;11.67;;;;;;;;;;5059956;28;20957;-73
2022/03/27 04:34:08;;;;;;;17.10;10.73;;;;;;;;;;5071765;28;20197;-73
2022/03/27 04:36:35;;;;;;;14.30;9.47;;;;;;;;;;5066828;28;20213;-73
2022/03/27 04:39:01;;;;;;;12.93;8.87;;;;;;;;;;5069008;28;20219;-73
2022/03/27 04:41:27;;;;;;;15.50;9.17;;;;;;;;;;5070107;28;20227;-73
2022/03/27 04:43:53;;;;;;;13.73;9.20;;;;;;;;;;5071358;28;20201;-73
2022/03/27 04:46:19;;;;;;;12.43;9.50;;;;;;;;;;5069500;28;20555;-73
2022/03/27 04:48:46;;;;;;;14.17;9.57;;;;;;;;;;5069711;28;20185;-73
2022/03/27 04:51:13;;;;;;;12.27;9.60;;;;;;;;;;5067950;28;20606;-73
2022/03/27 04:53:39;;;;;;;12.67;8.90;;;;;;;;;;5069057;28;20208;-73
2022/03/27 04:56:06;;;;;;;13.33;9.10;;;;;;;;;;5072204;28;20216;-73
2022/03/27 04:58:32;;;;;;;11.73;8.00;;;;;;;;;;5069687;28;20188;-73
2022/03/27 05:00:58;;;;;;;11.13;9.07;;;;;;;;;;5072089;28;20185;-74
2022/03/27 05:03:25;;;;;;;12.50;8.67;;;;;;;;;;5064190;28;20251;-73
2022/03/27 05:05:51;;;;;;;13.77;8.67;;;;;;;;;;5070078;28;20188;-74
2022/03/27 05:08:17;;;;;;;12.37;8.50;;;;;;;;;;5067523;28;20184;-74
2022/03/27 05:10:43;;;;;;;12.77;8.90;;;;;;;;;;5063022;28;20280;-73
2022/03/27 05:13:10;;;;;;;12.70;8.90;;;;;;;;;;5066128;28;20212;-73
2022/03/27 05:15:36;;;;;;;13.43;9.67;;;;;;;;;;5070973;28;20208;-73
2022/03/27 05:18:02;;;;;;;11.80;8.77;;;;;;;;;;5071217;28;20184;-73
2022/03/27 05:20:29;;;;;;;12.70;9.90;;;;;;;;;;5066523;28;20182;-73
2022/03/27 05:22:56;;;;;;;12.07;9.53;;;;;;;;;;5069296;28;20208;-73
2022/03/27 05:25:23;;;;;;;11.13;9.00;;;;;;;;;;5070744;28;20184;-74
2022/03/27 05:27:57;;;;;;;13.40;9.63;;;;;;;;;;5066226;28;20243;-74
2022/03/27 05:30:24;;;;;;;14.13;9.10;;;;;;;;;;5067201;28;20192;-73
2022/03/27 05:32:51;;;;;;;12.13;9.00;;;;;;;;;;5068026;28;20201;-73
2022/03/27 05:35:18;;;;;;;12.10;9.77;;;;;;;;;;5065716;28;20709;-74
2022/03/27 05:37:45;;;;;;;12.83;10.23;;;;;;;;;;5066593;28;20553;-73
2022/03/27 05:40:13;;;;;;;14.40;11.30;;;;;;;;;;5066628;28;20221;-73
2022/03/27 05:42:40;;;;;;;15.87;11.50;;;;;;;;;;5064060;28;20208;-73
2022/03/27 05:45:08;;;;;;;16.53;11.73;;;;;;;;;;5061650;28;20646;-73
2022/03/27 05:47:34;;;;;;;20.33;13.23;;;;;;;;;;5064501;28;20185;-73
2022/03/27 05:50:01;;;;;;;19.50;12.90;;;;;;;;;;5069127;28;20186;-73
2022/03/27 05:52:28;;;;;;;18.93;13.53;;;;;;;;;;5064810;28;20666;-73
2022/03/27 05:54:54;;;;;;;16.73;11.77;;;;;;;;;;5067055;28;20210;-74
2022/03/27 05:57:20;;;;;;;16.13;12.47;;;;;;;;;;5059429;28;20185;-73
2022/03/27 05:59:46;;;;;;;18.30;12.63;;;;;;;;;;5061972;28;20830;-73
2022/03/27 06:02:13;;;;;;;17.57;13.40;;;;;;;;;;5066782;28;20279;-73
2022/03/27 06:04:40;;;;;;;16.27;12.60;;;;;;;;;;5070158;28;20184;-73
2022/03/27 06:07:06;;;;;;;19.90;13.87;;;;;;;;;;5064986;28;20692;-73
2022/03/27 06:09:35;;;;;;;18.73;13.80;;;;;;;;;;5067995;28;20181;-73
2022/03/27 06:12:01;;;;;;;28.10;13.53;;;;;;;;;;5068302;28;20238;-73
2022/03/27 06:14:28;;;;;;;18.37;13.30;;;;;;;;;;5068783;28;20269;-74
2022/03/27 06:16:54;;;;;;;19.43;13.30;;;;;;;;;;5066549;28;20188;-73
2022/03/27 06:19:20;;;;;;;18.57;12.50;;;;;;;;;;5065060;28;20188;-76
2022/03/27 06:21:46;;;;;;;17.03;12.53;;;;;;;;;;5051776;28;20548;-76
2022/03/27 06:24:13;;;;;;;17.13;13.03;;;;;;;;;;5067807;28;20215;-77
2022/03/27 06:26:40;;;;;;;18.47;13.27;;;;;;;;;;5071056;28;20191;-78
2022/03/27 06:29:09;;;;;;;19.10;12.03;;;;;;;;;;5073294;28;20256;-78
2022/03/27 06:31:38;;;;;;;15.77;12.17;;;;;;;;;;5069080;28;20193;-79
2022/03/27 06:34:06;;;;;;;16.70;12.47;;;;;;;;;;5064348;28;20209;-80
2022/03/27 06:36:32;;;;;;;17.90;13.53;;;;;;;;;;5053674;28;20212;-82
2022/03/27 06:38:58;;;;;;;17.53;13.30;;;;;;;;;;5046602;28;20185;-79
2022/03/27 06:41:24;;;;;;;16.03;12.63;;;;;;;;;;5071088;28;20181;-80
2022/03/27 06:43:50;;;;;;;16.17;12.70;;;;;;;;;;5054176;28;20204;-81
2022/03/27 06:46:17;;;;;;;18.20;12.90;;;;;;;;;;5052632;28;20279;-80
2022/03/27 06:48:46;;;;;;;17.03;12.70;;;;;;;;;;5053479;28;20192;-80
2022/03/27 06:51:13;;;;;;;18.43;12.80;;;;;;;;;;5070769;28;20732;-78
2022/03/27 06:53:39;;;;;;;20.70;13.40;;;;;;;;;;5079578;28;20228;-78
2022/03/27 06:56:06;;;;;;;23.97;13.93;;;;;;;;;;5068424;28;20297;-78
2022/03/27 06:58:33;;;;;;;17.27;13.63;;;;;;;;;;5067185;28;20173;-78
2022/03/27 07:03:44;;;;;;;18.17;14.57;;;;;;;;;;5069975;28;20200;-78
2022/03/27 07:06:10;;;;;;;18.60;13.60;;;;;;;;;;5073502;28;20187;-78
2022/03/27 07:08:37;;;;;;;18.47;14.03;;;;;;;;;;5067367;28;20242;-78
2022/03/27 07:11:03;;;;;;;17.33;13.80;;;;;;;;;;5052890;28;20692;-78
2022/03/27 07:13:30;;;;;;;17.80;13.57;;;;;;;;;;5072310;28;20212;-78
2022/03/27 07:15:57;;;;;;;17.30;13.10;;;;;;;;;;5076263;28;20204;-77
2022/03/27 07:18:24;;;;;;;17.47;13.80;;;;;;;;;;5074107;28;20220;-77
2022/03/27 07:20:50;;;;;;;18.23;12.77;;;;;;;;;;5065999;28;21182;-78
2022/03/27 07:23:20;;;;;;;21.17;14.37;;;;;;;;;;5070832;28;20742;-78
2022/03/27 07:25:48;;;;;;;23.40;14.53;;;;;;;;;;5062800;28;20188;-78
2022/03/27 07:28:15;;;;;;;17.77;14.07;;;;;;;;;;5074431;28;20193;-78
2022/03/27 07:30:42;;;;;;;16.63;13.03;;;;;;;;;;5060714;28;20181;-78
2022/03/27 07:33:08;;;;;;;19.23;13.67;;;;;;;;;;5055160;28;20673;-78
2022/03/27 07:35:35;;;;;;;16.73;12.77;;;;;;;;;;5073532;28;20231;-78
2022/03/27 07:38:01;;;;;;;18.87;13.57;;;;;;;;;;5076838;28;20232;-78
2022/03/27 07:40:28;;;;;;;18.27;14.43;;;;;;;;;;5073608;28;20188;-78
2022/03/27 07:42:54;;;;;;;17.60;13.20;;;;;;;;;;5072982;28;20301;-78
2022/03/27 07:45:21;;;;;;;16.37;13.57;;;;;;;;;;5071361;28;20206;-78
2022/03/27 07:47:48;;;;;;;18.73;13.83;;;;;;;;;;5080783;28;20181;-78
2022/03/27 07:50:16;;;;;;;17.93;13.73;;;;;;;;;;5073219;28;20604;-78
2022/03/27 07:52:42;;;;;;;16.47;13.77;;;;;;;;;;5054704;28;20568;-78
2022/03/27 07:55:09;;;;;;;16.60;13.83;;;;;;;;;;5074994;28;20253;-78
2022/03/27 07:57:35;;;;;;;20.77;13.70;;;;;;;;;;5074280;28;20177;-78
2022/03/27 08:00:02;;;;;;;19.47;14.00;;;;;;;;;;5074388;28;20192;-77
2022/03/27 08:02:39;;;;;;;20.03;13.63;;;;;;;;;;5069582;28;20193;-78
2022/03/27 08:05:05;;;;;;;20.43;14.60;;;;;;;;;;5072522;28;20266;-78
2022/03/27 08:07:32;;;;;;;19.70;14.60;;;;;;;;;;5073240;28;20190;-78
2022/03/27 08:09:59;;;;;;;18.33;13.50;;;;;;;;;;5073285;28;20185;-78
2022/03/27 08:12:25;;;;;;;17.63;13.50;;;;;;;;;;5069475;28;20197;-78
2022/03/27 08:14:52;;;;;;;18.63;13.70;;;;;;;;;;5070581;28;20214;-78
2022/03/27 08:17:19;;;;;;;15.93;12.93;;;;;;;;;;5071916;28;20689;-78
2022/03/27 08:19:47;;;;;;;14.73;13.10;;;;;;;;;;5074344;28;20490;-78
2022/03/27 08:22:21;;;;;;;16.33;13.57;;;;;;;;;;5072317;28;20307;-77
2022/03/27 08:24:47;;;;;;;17.30;13.33;;;;;;;;;;5088030;28;20173;-78
2022/03/27 08:27:14;;;;;;;16.43;13.50;;;;;;;;;;5076155;28;20223;-78
2022/03/27 08:29:41;;;;;;;16.27;13.20;;;;;;;;;;5073598;28;20181;-78
2022/03/27 08:32:08;;;;;;;15.73;12.97;;;;;;;;;;5072372;28;20184;-78
2022/03/27 08:34:36;;;;;;;18.37;12.27;;;;;;;;;;5073803;28;20246;-78
2022/03/27 08:37:03;;;;;;;15.00;11.97;;;;;;;;;;5072843;28;20201;-78
2022/03/27 08:39:29;;;;;;;16.57;13.17;;;;;;;;;;5073573;28;20182;-78
2022/03/27 08:41:56;;;;;;;20.33;13.77;;;;;;;;;;5082137;28;20580;-78
2022/03/27 08:44:24;;;;;;;16.03;12.57;;;;;;;;;;5073028;28;20268;-78
2022/03/27 08:46:51;;;;;;;19.80;13.60;;;;;;;;;;5071373;28;20264;-78
2022/03/27 08:49:17;;;;;;;16.67;12.97;;;;;;;;;;5071253;28;20231;-78
2022/03/27 08:51:48;;;;;;;15.40;13.27;;;;;;;;;;5069232;28;20192;-78
2022/03/27 08:54:17;;;;;;;19.17;11.93;;;;;;;;;;5071713;28;20577;-78
2022/03/27 08:56:47;;;;;;;13.43;10.93;;;;;;;;;;5068741;28;20236;-78
2022/03/27 08:59:16;;;;;;;17.63;12.00;;;;;;;;;;5070510;28;20181;-78
2022/03/27 09:02:05;;;;;;;14.03;12.03;;;;;;;;;;5054960;28;20234;-78
2022/03/27 09:04:37;;;;;;;15.47;11.60;;;;;;;;;;5075994;28;20193;-78
2022/03/27 09:07:06;;;;;;;13.83;11.53;;;;;;;;;;5067798;28;20173;-78
2022/03/27 09:09:38;;;;;;;16.30;12.33;;;;;;;;;;5048191;28;20189;-78
2022/03/27 09:12:15;;;;;;;15.33;11.37;;;;;;;;;;5059372;28;20193;-78
2022/03/27 09:14:43;;;;;;;14.67;11.60;;;;;;;;;;5058413;28;20173;-78
2022/03/27 09:17:14;;;;;;;13.73;11.00;;;;;;;;;;5058669;28;20283;-78
2022/03/27 09:19:47;;;;;;;14.97;10.80;;;;;;;;;;5055632;28;20247;-78
2022/03/27 09:22:16;;;;;;;15.43;11.83;;;;;;;;;;5049749;28;20268;-79
2022/03/27 09:24:45;;;;;;;14.30;10.70;;;;;;;;;;5070842;28;20177;-78
2022/03/27 09:27:11;;;;;;;12.07;9.83;;;;;;;;;;5055319;28;20740;-78
2022/03/27 09:29:55;;;;;;;11.43;9.03;;;;;;;;;;5040449;28;20191;-78
2022/03/27 09:32:29;;;;;;;13.50;9.40;;;;;;;;;;5057740;28;20269;-78
2022/03/27 09:35:21;;;;;;;14.00;9.60;;;;;;;;;;5054470;28;20240;-78
2022/03/27 09:37:51;;;;;;;12.27;8.77;;;;;;;;;;5068983;28;20223;-78
2022/03/27 09:40:17;;;;;;;12.23;9.33;;;;;;;;;;5069126;28;20177;-78
2022/03/27 09:42:47;;;;;;;13.10;9.17;;;;;;;;;;5072744;28;20224;-78
2022/03/27 09:45:16;;;;;;;8.77;7.87;;;;;;;;;;5055523;28;20189;-78
2022/03/27 09:47:44;;;;;;;9.77;8.00;;;;;;;;;;5067658;28;20193;-78
2022/03/27 09:50:28;;;;;;;10.50;8.40;;;;;;;;;;5071356;28;20203;-78
2022/03/27 09:53:14;;;;;;;12.30;8.73;;;;;;;;;;5069713;28;20288;-78
2022/03/27 09:55:40;;;;;;;11.17;8.77;;;;;;;;;;5071137;28;20243;-78
2022/03/27 09:58:09;;;;;;;12.23;8.70;;;;;;;;;;5069946;28;20177;-78
2022/03/27 10:00:36;;;;;;;11.43;8.60;;;;;;;;;;5071150;28;20257;-78
2022/03/27 10:03:10;;;;;;;12.17;8.97;;;;;;;;;;5085259;28;20193;-79
2022/03/27 10:05:37;;;;;;;12.47;9.20;;;;;;;;;;5063918;28;20243;-78
2022/03/27 10:08:04;;;;;;;11.80;8.50;;;;;;;;;;5071447;28;20185;-78
2022/03/27 10:10:30;;;;;;;10.00;7.20;;;;;;;;;;5069557;28;20265;-78
2022/03/27 10:12:57;;;;;;;8.77;7.00;;;;;;;;;;5072360;28;20193;-78
2022/03/27 10:15:25;;;;;;;9.77;8.43;;;;;;;;;;5069664;28;20208;-78
2022/03/27 10:17:57;;;;;;;11.20;7.30;;;;;;;;;;5067768;28;20885;-78
2022/03/27 10:20:27;;;;;;;8.77;7.20;;;;;;;;;;5058877;28;20184;-78
2022/03/27 10:22:54;;;;;;;13.27;7.47;;;;;;;;;;5069504;28;20221;-78
2022/03/27 10:25:21;;;;;;;8.57;7.30;;;;;;;;;;5049243;28;20231;-78
2022/03/27 10:27:48;;;;;;;9.70;6.73;;;;;;;;;;5069021;28;20189;-78
2022/03/27 10:30:15;;;;;;;9.23;6.57;;;;;;;;;;5070778;28;20619;-78
2022/03/27 10:32:42;;;;;;;7.90;6.30;;;;;;;;;;5070044;28;20201;-78
2022/03/27 10:35:09;;;;;;;8.60;5.50;;;;;;;;;;5071777;28;20209;-78
2022/03/27 10:37:44;;;;;;;8.53;5.73;;;;;;;;;;5071523;28;20256;-78
2022/03/27 10:40:27;;;;;;;5.63;5.00;;;;;;;;;;5065882;28;20181;-79
2022/03/27 10:43:06;;;;;;;7.70;5.70;;;;;;;;;;5054314;28;20204;-79
2022/03/27 10:45:35;;;;;;;6.60;5.67;;;;;;;;;;5030835;28;20184;-76
2022/03/27 10:48:11;;;;;;;7.60;5.97;;;;;;;;;;5062712;28;20304;-75
2022/03/27 10:50:50;;;;;;;6.17;5.57;;;;;;;;;;5086133;28;20195;-80
2022/03/27 10:53:17;;;;;;;7.10;5.90;;;;;;;;;;5054953;28;20208;-80
2022/03/27 10:55:45;;;;;;;7.23;5.70;;;;;;;;;;5057783;28;20209;-80
2022/03/27 10:58:31;;;;;;;6.57;5.17;;;;;;;;;;5079675;28;20204;-86
2022/03/27 11:00:58;;;;;;;8.27;5.67;;;;;;;;;;5071436;28;20225;-77
2022/03/27 11:03:45;;;;;;;9.87;7.73;;;;;;;;;;5069777;28;20287;-81
2022/03/27 11:06:22;;;;;;;8.33;5.60;;;;;;;;;;5072473;28;20185;-80
2022/03/27 11:08:52;;;;;;;5.37;4.87;;;;;;;;;;5068194;28;20208;-80
2022/03/27 11:11:44;;;;;;;7.77;5.40;;;;;;;;;;5069908;28;20181;-80
2022/03/27 11:14:21;;;;;;;7.67;5.23;;;;;;;;;;5073614;28;20259;-80
2022/03/27 11:17:10;;;;;;;6.80;5.17;;;;;;;;;;5067934;28;20235;-79
2022/03/27 11:19:41;;;;;;;7.27;5.20;;;;;;;;;;5071724;28;20180;-82
2022/03/27 11:22:28;;;;;;;6.53;5.47;;;;;;;;;;5055352;28;20204;-82
2022/03/27 11:25:13;;;;;;;7.20;4.73;;;;;;;;;;5054859;28;20668;-82
2022/03/27 11:28:08;;;;;;;6.00;5.37;;;;;;;;;;5062804;28;20177;-80
2022/03/27 11:30:36;;;;;;;7.13;5.20;;;;;;;;;;5071094;28;20251;-83
2022/03/27 11:33:13;;;;;;;5.60;5.00;;;;;;;;;;5076427;28;20196;-82
2022/03/27 11:35:41;;;;;;;7.20;5.30;;;;;;;;;;5067933;28;20223;-82
2022/03/27 11:38:21;;;;;;;6.43;5.20;;;;;;;;;;5054265;28;20182;-81
2022/03/27 11:40:48;;;;;;;6.47;5.10;;;;;;;;;;5058389;28;20672;-82
2022/03/27 11:43:35;;;;;;;5.03;4.53;;;;;;;;;;5053406;28;20201;-82
2022/03/27 11:46:02;;;;;;;5.50;4.93;;;;;;;;;;5059816;28;20282;-82
2022/03/27 11:48:29;;;;;;;6.80;4.60;;;;;;;;;;5067166;28;20243;-83
2022/03/27 11:50:56;;;;;;;5.83;4.37;;;;;;;;;;5070590;28;20197;-82
2022/03/27 11:53:30;;;;;;;5.47;4.50;;;;;;;;;;5089896;28;20209;-82
2022/03/27 11:56:04;;;;;;;5.80;4.77;;;;;;;;;;5070616;28;20382;-82
2022/03/27 11:58:30;;;;;;;6.67;5.80;;;;;;;;;;5087789;28;20197;-82
2022/03/27 12:01:02;;;;;;;7.77;5.10;;;;;;;;;;5076152;28;20534;-83
2022/03/27 12:03:28;;;;;;;7.07;4.87;;;;;;;;;;5073860;28;20676;-84
2022/03/27 12:05:54;;;;;;;6.57;4.70;;;;;;;;;;5073290;28;20204;-84
2022/03/27 12:08:31;;;;;;;6.73;5.03;;;;;;;;;;5071604;28;20483;-84
2022/03/27 12:10:57;;;;;;;6.03;4.57;;;;;;;;;;5057840;28;20189;-84
2022/03/27 12:13:24;;;;;;;7.13;4.80;;;;;;;;;;5068146;28;20883;-84
2022/03/27 12:15:52;;;;;;;5.07;4.57;;;;;;;;;;5072431;28;20211;-84
2022/03/27 12:18:29;;;;;;;5.73;4.40;;;;;;;;;;5063506;28;20186;-84
2022/03/27 12:20:56;;;;;;;6.07;4.20;;;;;;;;;;5068152;28;20596;-82
2022/03/27 12:23:23;;;;;;;4.23;3.83;;;;;;;;;;5073163;28;20256;-82
2022/03/27 12:25:57;;;;;;;5.13;4.23;;;;;;;;;;5075450;28;20185;-85
2022/03/27 12:31:22;;;;;;;5.43;3.70;;;;;;;;;;5069806;28;20180;-83
2022/03/27 12:33:50;;;;;;;6.00;4.10;;;;;;;;;;5071253;28;20208;-85
2022/03/27 12:36:16;;;;;;;5.77;4.60;;;;;;;;;;5073300;28;20295;-84
2022/03/27 12:38:43;;;;;;;6.03;4.40;;;;;;;;;;5073449;28;21555;-81
2022/03/27 12:41:11;;;;;;;4.90;3.90;;;;;;;;;;5073957;28;20558;-83
2022/03/27 12:43:42;;;;;;;4.43;3.70;;;;;;;;;;5053627;28;20205;-79
2022/03/27 12:46:19;;;;;;;4.90;4.20;;;;;;;;;;5053421;28;20228;-78
2022/03/27 12:48:56;;;;;;;4.73;4.23;;;;;;;;;;5069569;28;20690;-77
2022/03/27 12:51:23;;;;;;;4.70;4.23;;;;;;;;;;5066861;28;20182;-78
2022/03/27 12:53:59;;;;;;;4.90;4.40;;;;;;;;;;5070805;28;20201;-77
2022/03/27 12:56:25;;;;;;;4.47;4.07;;;;;;;;;;5067632;28;20206;-78
2022/03/27 12:58:52;;;;;;;4.07;3.53;;;;;;;;;;5072761;28;20186;-78
2022/03/27 13:01:19;;;;;;;9.13;4.67;;;;;;;;;;5077128;28;20261;-78
2022/03/27 13:04:00;;;;;;;4.30;3.90;;;;;;;;;;5086666;28;20326;-78
2022/03/27 13:06:58;;;;;;;4.10;3.80;;;;;;;;;;5070174;28;20228;-79
2022/03/27 13:09:25;;;;;;;4.30;3.90;;;;;;;;;;5071942;28;20266;-78
2022/03/27 13:11:51;;;;;;;6.13;3.93;;;;;;;;;;5071517;28;20189;-78
2022/03/27 13:14:18;;;;;;;4.40;4.00;;;;;;;;;;5071692;28;20250;-78
2022/03/27 13:16:52;;;;;;;4.07;3.67;;;;;;;;;;5072414;28;20185;-80
2022/03/27 13:19:20;;;;;;;5.37;3.90;;;;;;;;;;5074360;28;20177;-80
2022/03/27 13:21:47;;;;;;;4.30;3.90;;;;;;;;;;5083838;28;20269;-79
2022/03/27 13:24:15;;;;;;;3.70;3.40;;;;;;;;;;5069338;28;20201;-79
2022/03/27 13:26:45;;;;;;;5.20;4.43;;;;;;;;;;5067658;28;20275;-79
2022/03/27 13:29:12;;;;;;;4.83;4.33;;;;;;;;;;5068654;28;20179;-78
2022/03/27 13:31:40;;;;;;;5.83;4.40;;;;;;;;;;5071503;28;20185;-79
2022/03/27 13:34:07;;;;;;;4.90;4.33;;;;;;;;;;5071546;28;20290;-79
2022/03/27 13:36:34;;;;;;;4.63;4.20;;;;;;;;;;5067796;28;20245;-79
2022/03/27 13:39:01;;;;;;;4.93;4.23;;;;;;;;;;5066684;28;20606;-85
2022/03/27 13:44:14;;;;;;;4.70;4.20;;;;;;;;;;5064363;28;20200;-83
2022/03/27 13:46:40;;;;;;;4.87;4.37;;;;;;;;;;5071508;28;20191;-84
2022/03/27 13:49:06;;;;;;;4.80;4.20;;;;;;;;;;5068538;28;20189;-84
2022/03/27 13:51:33;;;;;;;4.73;4.17;;;;;;;;;;5069353;28;20524;-84
2022/03/27 13:53:59;;;;;;;5.00;4.03;;;;;;;;;;5070538;28;20289;-84
2022/03/27 13:56:25;;;;;;;3.70;3.40;;;;;;;;;;5074957;28;20272;-84
2022/03/27 13:58:52;;;;;;;4.20;3.70;;;;;;;;;;5076698;28;20188;-83
2022/03/27 14:01:19;;;;;;;3.90;3.60;;;;;;;;;;5058190;28;20258;-84
2022/03/27 14:03:45;;;;;;;4.60;3.90;;;;;;;;;;5061349;28;20200;-83
2022/03/27 14:06:11;;;;;;;4.10;3.70;;;;;;;;;;5076605;28;20200;-85
2022/03/27 14:08:38;;;;;;;6.07;5.37;;;;;;;;;;5074680;28;20196;-84
2022/03/27 14:11:05;;;;;;;4.67;4.13;;;;;;;;;;5065678;28;20197;-82
2022/03/27 14:13:31;;;;;;;5.03;4.40;;;;;;;;;;5063113;28;20587;-84
2022/03/27 14:15:57;;;;;;;4.50;4.10;;;;;;;;;;5064678;28;20217;-81
2022/03/27 14:18:23;;;;;;;4.60;4.20;;;;;;;;;;5055794;28;20186;-84
2022/03/27 14:20:50;;;;;;;4.60;4.20;;;;;;;;;;5068868;28;20210;-85
2022/03/27 14:23:16;;;;;;;5.03;4.03;;;;;;;;;;5071542;28;20206;-84
2022/03/27 14:25:45;;;;;;;4.13;3.73;;;;;;;;;;5065798;28;20187;-83
2022/03/27 14:28:12;;;;;;;4.00;3.60;;;;;;;;;;5087821;28;20187;-84
2022/03/27 14:30:38;;;;;;;4.13;3.63;;;;;;;;;;5073500;28;20601;-84
2022/03/27 14:33:05;;;;;;;3.50;3.20;;;;;;;;;;5074591;28;20210;-83
2022/03/27 14:35:31;;;;;;;4.33;3.93;;;;;;;;;;5068037;28;20781;-83
2022/03/27 14:37:57;;;;;;;4.33;3.77;;;;;;;;;;5071986;28;20190;-83
2022/03/27 14:40:24;;;;;;;4.33;3.77;;;;;;;;;;5073190;28;20185;-82
2022/03/27 14:42:50;;;;;;;4.17;3.70;;;;;;;;;;5071237;28;20202;-83
2022/03/27 14:45:17;;;;;;;4.20;3.60;;;;;;;;;;5066733;28;20188;-84